createdAt,value
2023-02-15T00:01:40.460Z,52.95
2023-02-15T00:03:42.654Z,52.98
2023-02-15T00:05:44.856Z,52.51
2023-02-15T00:07:47.153Z,52.75
2023-02-15T00:09:50.158Z,52.75
2023-02-15T00:11:52.469Z,53.04
2023-02-15T00:13:54.706Z,52.81
2023-02-15T00:16:03.348Z,52.80
2023-02-15T00:18:05.626Z,52.91
2023-02-15T00:20:08.726Z,52.36
2023-02-15T00:22:10.894Z,52.63
2023-02-15T00:24:15.794Z,52.85
2023-02-15T00:26:17.994Z,52.83
2023-02-15T00:28:20.167Z,53.23
2023-02-15T00:30:22.355Z,53.20
2023-02-15T00:32:24.568Z,53.38
2023-02-15T00:34:28.602Z,53.31
2023-02-15T00:36:30.717Z,52.84
2023-02-15T00:38:33.255Z,53.68
2023-02-15T00:40:35.428Z,53.13
2023-02-15T00:42:37.676Z,53.01
2023-02-15T00:44:39.732Z,53.24
2023-02-15T00:46:42.164Z,52.99
2023-02-15T00:48:44.814Z,52.51
2023-02-15T00:50:48.343Z,52.54
2023-02-15T00:52:50.483Z,53.36
2023-02-15T00:54:52.558Z,53.10
2023-02-15T00:56:54.716Z,53.41
2023-02-15T00:58:56.956Z,53.12
2023-02-15T01:01:07.126Z,52.96
2023-02-15T01:03:09.992Z,52.40
2023-02-15T01:05:12.066Z,53.02
2023-02-15T01:07:14.187Z,53.24
2023-02-15T01:09:16.389Z,52.85
2023-02-15T01:11:23.650Z,53.38
2023-02-15T01:13:25.826Z,52.99
2023-02-15T01:15:28.060Z,53.08
2023-02-15T01:17:30.558Z,53.42
2023-02-15T01:19:32.641Z,52.84
2023-02-15T01:21:35.678Z,53.48
2023-02-15T01:23:38.409Z,53.18
2023-02-15T01:25:40.625Z,53.44
2023-02-15T01:27:42.952Z,52.97
2023-02-15T01:29:45.349Z,52.77
2023-02-15T01:31:47.804Z,52.95
2023-02-15T01:33:50.460Z,53.09
2023-02-15T01:35:59.251Z,53.19
2023-02-15T01:38:01.815Z,53.60
2023-02-15T01:40:06.801Z,53.67
2023-02-15T01:42:12.522Z,53.24
2023-02-15T01:44:20.843Z,53.93
2023-02-15T01:46:29.147Z,53.96
2023-02-15T01:48:31.299Z,54.26
2023-02-15T01:50:39.436Z,54.63
2023-02-15T01:52:50.030Z,55.17
2023-02-15T01:54:52.227Z,55.23
2023-02-15T01:56:59.338Z,55.15
2023-02-15T01:59:07.496Z,55.40
2023-02-15T02:01:10.302Z,56.17
2023-02-15T02:03:13.280Z,56.11
2023-02-15T02:05:15.178Z,56.05
2023-02-15T02:07:20.536Z,56.39
2023-02-15T02:09:22.524Z,57.01
2023-02-15T02:11:24.804Z,56.77
2023-02-15T02:13:27.132Z,56.24
2023-02-15T02:15:40.352Z,56.72
2023-02-15T02:17:43.095Z,56.88
2023-02-15T02:19:49.710Z,56.65
2023-02-15T02:21:57.982Z,56.85
2023-02-15T02:24:04.470Z,56.58
2023-02-15T02:26:08.094Z,56.87
2023-02-15T02:28:16.163Z,56.51
2023-02-15T02:30:21.810Z,56.58
2023-02-15T02:32:30.268Z,56.90
2023-02-15T02:34:44.202Z,55.99
2023-02-15T02:36:54.610Z,56.54
2023-02-15T02:39:05.650Z,55.81
2023-02-15T02:41:13.890Z,55.53
2023-02-15T02:43:22.727Z,56.01
2023-02-15T02:45:32.385Z,55.26
2023-02-15T02:47:41.245Z,54.99
2023-02-15T02:49:45.592Z,55.66
2023-02-15T02:51:47.541Z,55.48
2023-02-15T02:53:54.547Z,54.92
2023-02-15T02:56:04.562Z,55.13
2023-02-15T02:58:12.125Z,54.96
2023-02-15T03:00:16.911Z,55.36
2023-02-15T03:02:26.777Z,55.21
2023-02-15T03:04:34.388Z,55.11
2023-02-15T03:06:43.844Z,54.91
2023-02-15T03:08:51.869Z,55.53
2023-02-15T03:10:56.877Z,55.09
2023-02-15T03:12:58.948Z,56.22
2023-02-15T03:15:05.800Z,56.21
2023-02-15T03:17:09.130Z,56.35
2023-02-15T03:19:17.257Z,55.71
2023-02-15T03:21:23.331Z,55.62
2023-02-15T03:23:29.088Z,55.64
2023-02-15T03:25:37.149Z,55.86
2023-02-15T03:27:43.779Z,56.28
2023-02-15T03:29:50.193Z,56.43
2023-02-15T03:31:58.248Z,56.27
2023-02-15T03:34:05.300Z,55.93
2023-02-15T03:36:11.843Z,57.04
2023-02-15T03:38:18.565Z,56.52
2023-02-15T03:40:30.946Z,57.16
2023-02-15T03:42:39.593Z,58.01
2023-02-15T03:44:51.117Z,58.00
2023-02-15T03:47:01.961Z,58.20
2023-02-15T03:49:05.078Z,58.41
2023-02-15T03:51:15.063Z,58.41
2023-02-15T03:53:22.031Z,58.24
2023-02-15T03:55:24.687Z,59.22
2023-02-15T03:57:32.969Z,59.53
2023-02-15T03:59:38.128Z,59.44
2023-02-15T04:01:51.951Z,59.72
2023-02-15T04:04:02.226Z,59.63
2023-02-15T04:06:04.727Z,60.56
2023-02-15T04:08:06.758Z,60.55
2023-02-15T04:10:12.030Z,60.49
2023-02-15T04:12:14.207Z,61.26
2023-02-15T04:14:19.274Z,60.88
2023-02-15T04:16:21.239Z,60.88
2023-02-15T04:18:27.363Z,61.13
2023-02-15T04:20:32.561Z,60.72
2023-02-15T04:22:37.712Z,60.72
2023-02-15T04:24:42.743Z,61.10
2023-02-15T04:26:44.813Z,61.24
2023-02-15T04:28:46.698Z,61.41
2023-02-15T04:30:48.741Z,61.86
2023-02-15T04:32:50.657Z,62.33
2023-02-15T04:34:52.724Z,62.54
2023-02-15T04:36:54.677Z,61.81
2023-02-15T04:38:56.725Z,62.24
2023-02-15T04:40:58.957Z,62.22
2023-02-15T04:43:00.897Z,61.98
2023-02-15T04:45:03.416Z,62.25
2023-02-15T04:47:05.600Z,63.38
2023-02-15T04:49:07.663Z,62.90
2023-02-15T04:51:10.491Z,62.79
2023-02-15T04:53:12.740Z,62.62
2023-02-15T04:55:15.425Z,62.73
2023-02-15T04:57:17.437Z,62.50
2023-02-15T04:59:19.461Z,62.57
2023-02-15T05:01:21.492Z,62.91
2023-02-15T05:03:23.828Z,62.68
2023-02-15T05:05:25.840Z,62.71
2023-02-15T05:07:27.779Z,63.04
2023-02-15T05:09:29.852Z,63.68
2023-02-15T05:11:31.801Z,63.56
2023-02-15T05:13:33.876Z,63.46
2023-02-15T05:15:35.831Z,64.06
2023-02-15T05:17:37.952Z,63.72
2023-02-15T05:19:40.236Z,64.22
2023-02-15T05:21:42.959Z,63.87
2023-02-15T05:23:45.077Z,63.65
2023-02-15T05:25:53.023Z,63.69
2023-02-15T05:27:58.229Z,63.50
2023-02-15T05:30:00.370Z,63.62
2023-02-15T05:32:03.761Z,63.56
2023-02-15T05:34:06.004Z,63.83
2023-02-15T05:36:08.936Z,63.88
2023-02-15T05:38:11.144Z,64.01
2023-02-15T05:40:13.507Z,63.93
2023-02-15T05:42:15.632Z,63.57
2023-02-15T05:44:18.001Z,63.47
2023-02-15T05:46:20.289Z,63.61
2023-02-15T05:48:24.585Z,63.49
2023-02-15T05:50:27.632Z,63.79
2023-02-15T05:52:29.603Z,64.10
2023-02-15T05:54:31.761Z,63.61
2023-02-15T05:56:33.645Z,63.74
2023-02-15T05:58:38.723Z,63.33
2023-02-15T06:00:40.722Z,64.03
2023-02-15T06:02:42.813Z,64.15
2023-02-15T06:04:45.170Z,64.05
2023-02-15T06:06:47.528Z,64.30
2023-02-15T06:08:49.511Z,64.79
2023-02-15T06:10:51.447Z,64.51
2023-02-15T06:12:53.590Z,64.71
2023-02-15T06:14:55.688Z,64.45
2023-02-15T06:16:57.712Z,64.27
2023-02-15T06:19:00.392Z,64.22
2023-02-15T06:21:02.427Z,64.24
2023-02-15T06:23:04.603Z,63.98
2023-02-15T06:25:07.039Z,64.16
2023-02-15T06:27:09.403Z,64.56
2023-02-15T06:29:11.385Z,64.43
2023-02-15T06:31:13.444Z,64.40
2023-02-15T06:33:15.486Z,64.59
2023-02-15T06:35:17.723Z,64.15
2023-02-15T06:37:19.791Z,64.55
2023-02-15T06:39:21.751Z,64.43
2023-02-15T06:41:24.298Z,64.66
2023-02-15T06:43:26.403Z,64.46
2023-02-15T06:45:28.493Z,65.16
2023-02-15T06:47:30.531Z,65.13
2023-02-15T06:49:32.487Z,64.94
2023-02-15T06:51:35.234Z,64.91
2023-02-15T06:53:37.283Z,65.03
2023-02-15T06:55:39.360Z,64.80
2023-02-15T06:57:41.666Z,64.97
2023-02-15T06:59:43.678Z,64.53
2023-02-15T07:01:45.716Z,64.59
2023-02-15T07:03:48.055Z,64.80
2023-02-15T07:05:50.359Z,64.42
2023-02-15T07:07:52.398Z,64.42
2023-02-15T07:09:54.449Z,64.69
2023-02-15T07:11:59.493Z,64.70
2023-02-15T07:14:01.411Z,63.87
2023-02-15T07:16:03.880Z,64.13
2023-02-15T07:18:06.338Z,63.82
2023-02-15T07:20:11.785Z,63.87
2023-02-15T07:22:13.863Z,64.13
2023-02-15T07:24:15.887Z,64.43
2023-02-15T07:26:17.847Z,63.77
2023-02-15T07:28:20.166Z,64.06
2023-02-15T07:30:22.288Z,64.03
2023-02-15T07:32:24.453Z,63.69
2023-02-15T07:34:26.480Z,64.29
2023-02-15T07:36:28.513Z,63.64
2023-02-15T07:38:34.226Z,64.22
2023-02-15T07:40:36.250Z,64.30
2023-02-15T07:42:38.303Z,64.08
2023-02-15T07:44:40.328Z,63.74
2023-02-15T07:46:42.809Z,64.45
2023-02-15T07:48:45.714Z,64.19
2023-02-15T07:50:47.892Z,63.97
2023-02-15T07:52:50.090Z,64.22
2023-02-15T07:54:52.183Z,63.71
2023-02-15T07:56:54.372Z,63.78
2023-02-15T07:58:58.968Z,63.24
2023-02-15T08:01:05.270Z,63.78
2023-02-15T08:03:10.844Z,63.20
2023-02-15T08:05:13.396Z,63.08
2023-02-15T08:07:15.462Z,62.89
2023-02-15T08:09:17.810Z,63.36
2023-02-15T08:11:27.558Z,63.39
2023-02-15T08:13:29.604Z,62.90
2023-02-15T08:15:32.776Z,63.30
2023-02-15T08:17:38.776Z,63.30
2023-02-15T08:19:40.998Z,63.45
2023-02-15T08:21:45.586Z,63.29
2023-02-15T08:23:48.379Z,62.57
2023-02-15T08:25:50.852Z,63.04
2023-02-15T08:27:53.417Z,62.52
2023-02-15T08:29:56.090Z,62.70
2023-02-15T08:32:04.127Z,62.45
2023-02-15T08:34:07.135Z,62.63
2023-02-15T08:36:12.049Z,62.41
2023-02-15T08:38:14.565Z,62.38
2023-02-15T08:40:17.500Z,62.07
2023-02-15T08:42:21.384Z,62.81
2023-02-15T08:44:23.732Z,63.48
2023-02-15T08:46:29.248Z,63.36
2023-02-15T08:48:31.524Z,63.20
2023-02-15T08:50:33.809Z,63.06
2023-02-15T08:52:35.963Z,63.47
2023-02-15T08:54:38.626Z,63.70
2023-02-15T08:56:42.848Z,63.26
2023-02-15T08:58:45.240Z,63.09
2023-02-15T09:00:47.669Z,62.73
2023-02-15T09:02:50.295Z,63.26
2023-02-15T09:04:54.221Z,62.94
2023-02-15T09:06:56.843Z,63.44
2023-02-15T09:08:59.249Z,63.27
2023-02-15T09:11:06.222Z,63.23
2023-02-15T09:13:08.888Z,63.17
2023-02-15T09:15:12.361Z,63.45
2023-02-15T09:17:16.123Z,63.46
2023-02-15T09:19:20.168Z,63.58
2023-02-15T09:21:25.189Z,62.84
2023-02-15T09:23:28.993Z,63.26
2023-02-15T09:25:31.317Z,62.76
2023-02-15T09:27:33.465Z,62.91
2023-02-15T09:29:35.621Z,62.09
2023-02-15T09:31:45.583Z,62.43
2023-02-15T09:33:49.301Z,62.43
2023-02-15T09:35:51.371Z,62.77
2023-02-15T09:37:53.581Z,62.23
2023-02-15T09:39:56.020Z,62.16
2023-02-15T09:42:04.289Z,61.76
2023-02-15T09:44:07.204Z,61.79
2023-02-15T09:46:14.140Z,61.45
2023-02-15T09:48:20.053Z,61.53
2023-02-15T09:50:25.963Z,61.09
2023-02-15T09:52:32.839Z,60.97
2023-02-15T09:54:38.315Z,60.36
2023-02-15T09:56:45.848Z,60.37
2023-02-15T09:58:52.041Z,60.40
2023-02-15T10:00:57.608Z,60.58
2023-02-15T10:03:13.173Z,60.18
2023-02-15T10:05:22.056Z,60.13
2023-02-15T10:07:26.027Z,59.24
2023-02-15T10:09:35.549Z,59.31
2023-02-15T10:11:50.444Z,59.66
2023-02-15T10:14:00.463Z,59.66
2023-02-15T10:16:06.486Z,59.73
2023-02-15T10:18:15.501Z,59.50
2023-02-15T10:20:21.204Z,59.36
2023-02-15T10:22:29.727Z,58.42
2023-02-15T10:24:40.478Z,58.26
2023-02-15T10:26:47.269Z,58.36
2023-02-15T10:28:53.215Z,58.16
2023-02-15T10:31:08.535Z,57.89
2023-02-15T10:33:21.949Z,58.53
2023-02-15T10:35:37.332Z,57.72
2023-02-15T10:37:46.033Z,57.03
2023-02-15T10:39:54.513Z,56.79
2023-02-15T10:42:07.424Z,56.69
2023-02-15T10:44:21.173Z,56.98
2023-02-15T10:46:32.842Z,56.80
2023-02-15T10:48:39.231Z,56.49
2023-02-15T10:50:47.784Z,56.23
2023-02-15T10:52:58.272Z,55.55
2023-02-15T10:55:06.546Z,55.51
2023-02-15T10:57:14.840Z,55.38
2023-02-15T10:59:26.696Z,55.09
2023-02-15T11:01:42.446Z,55.39
2023-02-15T11:03:48.349Z,55.13
2023-02-15T11:06:02.937Z,54.99
2023-02-15T11:08:08.450Z,54.66
2023-02-15T11:10:17.368Z,54.67
2023-02-15T11:12:28.273Z,54.38
2023-02-15T11:14:33.869Z,54.35
2023-02-15T11:16:42.303Z,54.10
2023-02-15T11:18:49.834Z,53.82
2023-02-15T11:20:53.181Z,53.86
2023-02-15T11:22:56.128Z,53.91
2023-02-15T11:25:00.456Z,53.53
2023-02-15T11:27:07.537Z,53.09
2023-02-15T11:29:20.061Z,52.92
2023-02-15T11:31:26.234Z,52.84
2023-02-15T11:33:34.846Z,52.73
2023-02-15T11:35:43.737Z,52.57
2023-02-15T11:37:49.313Z,52.28
2023-02-15T11:39:55.827Z,52.36
2023-02-15T11:42:03.035Z,51.93
2023-02-15T11:44:13.479Z,51.42
2023-02-15T11:46:16.206Z,51.48
2023-02-15T11:48:19.334Z,50.87
2023-02-15T11:50:25.501Z,51.08
2023-02-15T11:52:27.815Z,51.07
2023-02-15T11:54:33.728Z,50.78
2023-02-15T11:56:36.214Z,50.74
2023-02-15T11:58:45.897Z,50.45
2023-02-15T12:00:51.653Z,50.45
2023-02-15T12:02:56.425Z,50.92
2023-02-15T12:05:05.406Z,50.63
2023-02-15T12:07:16.339Z,50.97
2023-02-15T12:09:30.237Z,50.77
2023-02-15T12:11:37.974Z,50.63
2023-02-15T12:13:51.089Z,50.74
2023-02-15T12:15:56.695Z,50.68
2023-02-15T12:17:58.904Z,50.31
2023-02-15T12:20:06.208Z,50.62
2023-02-15T12:22:23.115Z,50.06
2023-02-15T12:24:29.649Z,50.40
2023-02-15T12:26:35.468Z,50.22
2023-02-15T12:28:42.934Z,49.52
2023-02-15T12:30:45.655Z,49.50
2023-02-15T12:32:52.794Z,49.08
2023-02-15T12:35:03.335Z,48.71
2023-02-15T12:37:16.679Z,48.39
2023-02-15T12:39:23.927Z,48.31
2023-02-15T12:41:27.653Z,48.21
2023-02-15T12:43:34.459Z,47.77
2023-02-15T12:45:39.254Z,47.47
2023-02-15T12:47:41.602Z,46.86
2023-02-15T12:49:48.829Z,46.43
2023-02-15T12:51:54.210Z,46.16
2023-02-15T12:53:56.795Z,45.88
2023-02-15T12:56:02.464Z,45.63
2023-02-15T12:58:08.374Z,45.35
2023-02-15T13:00:16.820Z,45.18
2023-02-15T13:02:24.589Z,44.86
2023-02-15T13:04:31.106Z,44.80
2023-02-15T13:06:36.178Z,44.77
2023-02-15T13:08:49.092Z,43.85
2023-02-15T13:10:57.479Z,43.00
2023-02-15T13:13:00.298Z,42.49
2023-02-15T13:15:04.499Z,42.13
2023-02-15T13:17:08.929Z,41.58
2023-02-15T13:19:17.968Z,42.17
2023-02-15T13:21:26.208Z,41.66
2023-02-15T13:23:30.538Z,40.95
2023-02-15T13:25:45.065Z,41.70
2023-02-15T13:27:50.253Z,41.19
2023-02-15T13:29:59.863Z,41.24
2023-02-15T13:32:11.118Z,40.91
2023-02-15T13:34:22.464Z,40.79
2023-02-15T13:36:28.539Z,40.89
2023-02-15T13:38:34.475Z,40.87
2023-02-15T13:40:41.446Z,41.25
2023-02-15T13:42:54.054Z,41.04
2023-02-15T13:45:00.047Z,40.95
2023-02-15T13:47:11.323Z,40.72
2023-02-15T13:49:20.357Z,40.56
2023-02-15T13:51:28.815Z,40.09
2023-02-15T13:53:37.461Z,40.02
2023-02-15T13:55:43.339Z,40.55
2023-02-15T13:57:51.980Z,40.56
2023-02-15T14:00:00.453Z,40.82
2023-02-15T14:02:25.821Z,40.51
2023-02-15T14:04:32.361Z,40.14
2023-02-15T14:06:38.250Z,40.32
2023-02-15T14:08:49.045Z,40.17
2023-02-15T14:10:51.745Z,40.58
2023-02-15T14:13:07.418Z,40.82
2023-02-15T14:15:12.663Z,40.46
2023-02-15T14:17:22.843Z,40.72
2023-02-15T14:19:36.816Z,40.15
2023-02-15T14:21:45.437Z,39.92
2023-02-15T14:24:01.118Z,40.15
2023-02-15T14:26:13.138Z,39.50
2023-02-15T14:28:23.419Z,39.85
2023-02-15T14:30:31.008Z,39.89
2023-02-15T14:32:40.690Z,40.08
2023-02-15T14:34:47.845Z,40.09
2023-02-15T14:36:53.167Z,40.18
2023-02-15T14:39:01.978Z,40.10
2023-02-15T14:41:10.615Z,40.25
2023-02-15T14:43:23.740Z,40.15
2023-02-15T14:45:33.784Z,39.90
2023-02-15T14:47:41.199Z,39.81
2023-02-15T14:49:44.066Z,39.92
2023-02-15T14:51:49.233Z,40.03
2023-02-15T14:53:51.976Z,40.13
2023-02-15T14:56:00.753Z,39.75
2023-02-15T14:58:03.248Z,39.64
2023-02-15T15:00:26.943Z,39.18
2023-02-15T15:02:44.139Z,38.98
2023-02-15T15:04:58.937Z,39.36
2023-02-15T15:07:08.135Z,39.10
2023-02-15T15:09:15.086Z,39.35
2023-02-15T15:11:43.837Z,39.23
2023-02-15T15:13:52.512Z,39.15
2023-02-15T15:15:54.936Z,39.73
2023-02-15T15:18:00.643Z,39.67
2023-02-15T15:20:06.172Z,39.94
2023-02-15T15:22:22.441Z,40.23
2023-02-15T15:24:31.134Z,40.10
2023-02-15T15:26:38.019Z,40.23
2023-02-15T15:28:41.002Z,40.26
2023-02-15T15:30:44.187Z,40.27
2023-02-15T15:32:52.979Z,40.61
2023-02-15T15:35:13.804Z,40.58
2023-02-15T15:37:18.965Z,40.39
2023-02-15T15:39:27.634Z,40.64
2023-02-15T15:41:33.702Z,40.44
2023-02-15T15:43:42.652Z,40.69
2023-02-15T15:45:50.881Z,40.89
2023-02-15T15:48:06.536Z,41.05
2023-02-15T15:50:14.553Z,41.35
2023-02-15T15:52:20.170Z,41.29
2023-02-15T15:54:25.869Z,41.47
2023-02-15T15:56:32.557Z,41.80
2023-02-15T15:58:36.120Z,41.97
2023-02-15T16:00:46.193Z,42.11
2023-02-15T16:02:52.555Z,41.90
2023-02-15T16:04:55.448Z,42.30
2023-02-15T16:06:59.509Z,42.03
2023-02-15T16:09:10.088Z,42.32
2023-02-15T16:11:21.756Z,42.38
2023-02-15T16:13:24.650Z,42.18
2023-02-15T16:15:32.894Z,42.36
2023-02-15T16:17:35.459Z,42.27
2023-02-15T16:19:42.826Z,42.62
2023-02-15T16:21:49.682Z,42.65
2023-02-15T16:23:58.957Z,42.60
2023-02-15T16:26:05.850Z,42.77
2023-02-15T16:28:12.550Z,42.83
2023-02-15T16:30:21.117Z,42.85
2023-02-15T16:32:27.144Z,43.07
2023-02-15T16:34:33.724Z,43.78
2023-02-15T16:36:36.049Z,43.98
2023-02-15T16:38:44.803Z,43.73
2023-02-15T16:40:55.308Z,44.31
2023-02-15T16:43:02.892Z,44.49
2023-02-15T16:45:11.033Z,44.09
2023-02-15T16:47:21.245Z,44.41
2023-02-15T16:49:27.366Z,44.33
2023-02-15T16:51:33.072Z,44.93
2023-02-15T16:53:35.303Z,44.63
2023-02-15T16:55:42.506Z,44.63
2023-02-15T16:57:45.468Z,44.67
2023-02-15T16:59:51.586Z,44.63
2023-02-15T17:01:55.024Z,44.67
2023-02-15T17:04:14.182Z,44.70
2023-02-15T17:06:21.614Z,44.93
2023-02-15T17:08:28.888Z,45.12
2023-02-15T17:10:37.719Z,45.19
2023-02-15T17:12:46.491Z,45.34
2023-02-15T17:14:56.462Z,45.58
2023-02-15T17:17:05.377Z,45.65
2023-02-15T17:19:16.126Z,45.82
2023-02-15T17:21:20.277Z,45.62
2023-02-15T17:23:29.956Z,45.96
2023-02-15T17:25:38.827Z,46.27
2023-02-15T17:27:42.197Z,46.27
2023-02-15T17:29:53.624Z,46.51
2023-02-15T17:35:18.324Z,46.38
2023-02-15T17:37:26.521Z,46.45
2023-02-15T17:39:28.861Z,46.71
2023-02-15T17:41:35.444Z,46.63
2023-02-15T17:43:38.020Z,46.66
2023-02-15T17:45:48.491Z,46.71
2023-02-15T17:47:51.467Z,46.79
2023-02-15T17:49:54.963Z,46.95
2023-02-15T17:51:59.124Z,46.78
2023-02-15T17:54:04.739Z,47.01
2023-02-15T17:56:10.726Z,47.24
2023-02-15T17:58:16.085Z,47.22
2023-02-15T18:00:22.552Z,47.34
2023-02-15T18:02:29.053Z,47.14
2023-02-15T18:04:37.854Z,47.23
2023-02-15T18:06:46.405Z,47.44
2023-02-15T18:08:52.469Z,47.34
2023-02-15T18:10:58.795Z,47.56
2023-02-15T18:13:01.421Z,47.29
2023-02-15T18:15:05.182Z,47.67
2023-02-15T18:17:15.350Z,47.84
2023-02-15T18:19:23.887Z,47.63
2023-02-15T18:21:27.041Z,47.72
2023-02-15T18:23:29.663Z,47.71
2023-02-15T18:25:32.626Z,47.80
2023-02-15T18:27:35.353Z,48.97
2023-02-15T18:29:38.089Z,48.82
2023-02-15T18:31:41.007Z,49.52
2023-02-15T18:33:48.471Z,49.74
2023-02-15T18:35:51.698Z,50.08
2023-02-15T18:37:54.832Z,50.24
2023-02-15T18:39:57.330Z,50.92
2023-02-15T18:41:59.858Z,51.04
2023-02-15T18:44:02.513Z,51.40
2023-02-15T18:46:05.453Z,51.51
2023-02-15T18:48:10.578Z,52.07
2023-02-15T18:50:16.405Z,52.50
2023-02-15T18:52:24.865Z,52.39
2023-02-15T18:54:27.832Z,52.75
2023-02-15T18:56:31.657Z,53.37
2023-02-15T18:58:34.297Z,53.67
2023-02-15T19:00:37.341Z,54.05
2023-02-15T19:02:39.965Z,53.98
2023-02-15T19:04:43.273Z,54.06
2023-02-15T19:06:51.045Z,53.93
2023-02-15T19:08:55.107Z,54.35
2023-02-15T19:11:00.144Z,54.80
2023-02-15T19:13:04.708Z,55.09
2023-02-15T19:15:16.398Z,55.08
2023-02-15T19:17:24.333Z,55.34
2023-02-15T19:19:28.933Z,55.51
2023-02-15T19:21:33.984Z,55.92
2023-02-15T19:23:37.453Z,56.79
2023-02-15T19:25:42.214Z,56.86
2023-02-15T19:27:46.981Z,56.94
2023-02-15T19:29:50.955Z,56.82
2023-02-15T19:31:54.303Z,57.13
2023-02-15T19:33:58.239Z,57.74
2023-02-15T19:36:02.476Z,58.18
2023-02-15T19:38:12.592Z,58.36
2023-02-15T19:40:22.713Z,58.52
2023-02-15T19:42:26.145Z,58.53
2023-02-15T19:44:29.651Z,58.37
2023-02-15T19:46:35.281Z,58.54
2023-02-15T19:48:39.994Z,58.51
2023-02-15T19:50:44.697Z,59.25
2023-02-15T19:52:48.739Z,58.91
2023-02-15T19:54:58.986Z,59.54
2023-02-15T19:57:02.344Z,59.82
2023-02-15T19:59:06.583Z,59.65
2023-02-15T20:01:11.814Z,60.03
2023-02-15T20:03:16.304Z,60.75
2023-02-15T20:05:22.037Z,60.14
2023-02-15T20:07:29.111Z,60.38
2023-02-15T20:09:39.211Z,60.68
2023-02-15T20:11:44.280Z,60.85
2023-02-15T20:13:49.895Z,61.20
2023-02-15T20:15:55.430Z,60.82
2023-02-15T20:18:01.002Z,61.51
2023-02-15T20:20:05.655Z,61.64
2023-02-15T20:22:21.337Z,62.08
2023-02-15T20:24:28.975Z,62.73
2023-02-15T20:26:34.109Z,63.29
2023-02-15T20:28:38.713Z,63.35
2023-02-15T20:30:42.706Z,63.31
2023-02-15T20:32:47.385Z,63.97
2023-02-15T20:34:51.107Z,64.00
2023-02-15T20:36:55.041Z,63.80
2023-02-15T20:39:02.687Z,63.61
2023-02-15T20:41:10.244Z,63.81
2023-02-15T20:43:17.860Z,63.86
2023-02-15T20:45:25.087Z,64.29
2023-02-15T20:47:29.674Z,64.04
2023-02-15T20:49:35.487Z,64.82
2023-02-15T20:51:42.697Z,64.42
2023-02-15T20:53:48.577Z,64.53
2023-02-15T20:55:53.348Z,65.03
2023-02-15T20:57:58.071Z,65.00
2023-02-15T21:00:03.268Z,65.49
2023-02-15T21:02:16.887Z,65.55
2023-02-15T21:04:24.643Z,66.30
2023-02-15T21:06:29.798Z,67.00
2023-02-15T21:08:36.685Z,67.48
2023-02-15T21:10:45.884Z,68.38
2023-02-15T21:12:51.661Z,68.99
2023-02-15T21:14:55.742Z,68.57
2023-02-15T21:17:01.631Z,68.32
2023-02-15T21:19:14.986Z,69.20
2023-02-15T21:21:24.296Z,68.60
2023-02-15T21:23:34.539Z,68.36
2023-02-15T21:25:39.403Z,68.63
2023-02-15T21:27:44.070Z,68.43
2023-02-15T21:29:47.257Z,68.00
2023-02-15T21:31:51.415Z,67.96
2023-02-15T21:33:55.092Z,67.65
2023-02-15T21:35:59.472Z,67.61
2023-02-15T21:38:03.681Z,67.61
2023-02-15T21:40:20.015Z,67.94
2023-02-15T21:42:27.300Z,67.92
2023-02-15T21:44:34.809Z,68.82
2023-02-15T21:46:42.138Z,68.76
2023-02-15T21:48:46.619Z,68.45
2023-02-15T21:50:54.960Z,68.72
2023-02-15T21:52:59.680Z,68.66
2023-02-15T21:55:03.078Z,68.56
2023-02-15T21:57:06.361Z,68.29
2023-02-15T21:59:12.717Z,68.67
2023-02-15T22:01:20.048Z,69.03
2023-02-15T22:03:28.807Z,68.77
2023-02-15T22:05:34.421Z,68.70
2023-02-15T22:07:37.296Z,68.59
2023-02-15T22:09:40.102Z,68.49
2023-02-15T22:11:43.530Z,68.75
2023-02-15T22:13:47.685Z,68.79
2023-02-15T22:15:50.465Z,68.76
2023-02-15T22:17:54.146Z,68.92
2023-02-15T22:19:58.209Z,69.03
2023-02-15T22:22:01.364Z,69.02
2023-02-15T22:24:04.694Z,69.54
2023-02-15T22:26:12.836Z,69.45
2023-02-15T22:28:17.117Z,68.90
2023-02-15T22:30:23.861Z,69.09
2023-02-15T22:32:27.477Z,69.32
2023-02-15T22:34:32.675Z,70.16
2023-02-15T22:36:35.142Z,70.46
2023-02-15T22:38:37.638Z,70.85
2023-02-15T22:40:40.537Z,70.99
2023-02-15T22:42:47.274Z,71.63
2023-02-15T22:44:49.832Z,72.18
2023-02-15T22:46:53.091Z,72.39
2023-02-15T22:48:55.441Z,72.27
2023-02-15T22:50:57.892Z,72.72
2023-02-15T22:53:02.204Z,72.42
2023-02-15T22:55:04.451Z,72.25
2023-02-15T22:57:14.853Z,72.37
2023-02-15T22:59:22.180Z,72.69
2023-02-15T23:01:30.128Z,72.15
2023-02-15T23:03:33.760Z,72.60
2023-02-15T23:05:35.985Z,72.18
2023-02-15T23:07:38.173Z,71.95
2023-02-15T23:09:40.347Z,72.17
2023-02-15T23:11:43.685Z,72.30
2023-02-15T23:13:50.083Z,72.40
2023-02-15T23:15:56.113Z,72.38
2023-02-15T23:18:13.260Z,72.14
2023-02-15T23:20:15.837Z,72.46
2023-02-15T23:22:20.735Z,71.91
2023-02-15T23:24:27.798Z,71.07
2023-02-15T23:26:31.913Z,70.71
2023-02-15T23:28:37.014Z,69.74
2023-02-15T23:30:39.232Z,69.32
2023-02-15T23:32:41.329Z,68.66
2023-02-15T23:34:43.767Z,68.51
2023-02-15T23:36:45.920Z,67.96
2023-02-15T23:38:48.026Z,67.25
2023-02-15T23:40:57.006Z,66.91
2023-02-15T23:42:59.130Z,67.07
2023-02-15T23:45:02.563Z,66.87
2023-02-15T23:47:05.328Z,66.70
2023-02-15T23:49:15.238Z,67.07
2023-02-15T23:51:18.524Z,66.48
2023-02-15T23:53:20.531Z,66.63
2023-02-15T23:55:26.393Z,66.47
2023-02-15T23:57:28.570Z,66.74
2023-02-15T23:59:32.417Z,66.17
